sensor_id;sensor_type;location;lat;lon;timestamp;pressure;altitude;pressure_sealevel;temperature;humidity
59757;BME280;45631;51.962;5.974;2024-01-25T00:00:02;102540.00;;;6.02;100.00
59757;BME280;45631;51.962;5.974;2024-01-25T00:02:30;102536.53;;;6.00;100.00
59757;BME280;45631;51.962;5.974;2024-01-25T00:04:58;102544.38;;;6.00;100.00
59757;BME280;45631;51.962;5.974;2024-01-25T00:07:27;102550.50;;;5.97;100.00
59757;BME280;45631;51.962;5.974;2024-01-25T00:09:56;102548.81;;;5.95;100.00
59757;BME280;45631;51.962;5.974;2024-01-25T00:12:24;102549.75;;;5.89;100.00
59757;BME280;45631;51.962;5.974;2024-01-25T00:14:53;102549.84;;;5.84;100.00
59757;BME280;45631;51.962;5.974;2024-01-25T00:17:23;102552.56;;;5.80;100.00
59757;BME280;45631;51.962;5.974;2024-01-25T00:19:51;102554.34;;;5.76;100.00
59757;BME280;45631;51.962;5.974;2024-01-25T00:22:19;102557.03;;;5.73;100.00
59757;BME280;45631;51.962;5.974;2024-01-25T00:24:48;102561.44;;;5.68;100.00
59757;BME280;45631;51.962;5.974;2024-01-25T00:27:16;102565.03;;;5.62;100.00
59757;BME280;45631;51.962;5.974;2024-01-25T00:29:46;102562.53;;;5.54;100.00
59757;BME280;45631;51.962;5.974;2024-01-25T00:32:15;102558.25;;;5.50;100.00
59757;BME280;45631;51.962;5.974;2024-01-25T00:34:45;102567.88;;;5.47;100.00
59757;BME280;45631;51.962;5.974;2024-01-25T00:37:14;102559.25;;;5.43;100.00
59757;BME280;45631;51.962;5.974;2024-01-25T00:39:42;102564.53;;;5.38;100.00
59757;BME280;45631;51.962;5.974;2024-01-25T00:42:12;102570.72;;;5.33;100.00
59757;BME280;45631;51.962;5.974;2024-01-25T00:44:41;102564.75;;;5.24;100.00
59757;BME280;45631;51.962;5.974;2024-01-25T00:47:10;102571.75;;;5.22;100.00
59757;BME280;45631;51.962;5.974;2024-01-25T00:49:39;102581.41;;;5.16;100.00
59757;BME280;45631;51.962;5.974;2024-01-25T00:52:10;102581.50;;;5.10;100.00
59757;BME280;45631;51.962;5.974;2024-01-25T00:54:39;102573.66;;;5.10;100.00
59757;BME280;45631;51.962;5.974;2024-01-25T00:57:09;102569.47;;;5.01;100.00
59757;BME280;45631;51.962;5.974;2024-01-25T00:59:37;102573.84;;;4.97;100.00
59757;BME280;45631;51.962;5.974;2024-01-25T01:02:11;102573.03;;;4.92;100.00
59757;BME280;45631;51.962;5.974;2024-01-25T01:04:40;102574.00;;;4.86;100.00
59757;BME280;45631;51.962;5.974;2024-01-25T01:07:16;102587.03;;;4.85;100.00
59757;BME280;45631;51.962;5.974;2024-01-25T01:09:44;102585.38;;;4.81;100.00
59757;BME280;45631;51.962;5.974;2024-01-25T01:12:13;102581.94;;;4.76;100.00
59757;BME280;45631;51.962;5.974;2024-01-25T01:14:41;102580.28;;;4.70;100.00
59757;BME280;45631;51.962;5.974;2024-01-25T01:17:09;102595.09;;;4.68;100.00
59757;BME280;45631;51.962;5.974;2024-01-25T01:19:37;102596.91;;;4.63;100.00
59757;BME280;45631;51.962;5.974;2024-01-25T01:22:08;102594.38;;;4.53;100.00
59757;BME280;45631;51.962;5.974;2024-01-25T01:24:37;102595.31;;;4.49;100.00
59757;BME280;45631;51.962;5.974;2024-01-25T01:27:06;102597.06;;;4.46;100.00
59757;BME280;45631;51.962;5.974;2024-01-25T01:29:34;102598.00;;;4.42;100.00
59757;BME280;45631;51.962;5.974;2024-01-25T01:32:03;102600.66;;;4.37;100.00
59757;BME280;45631;51.962;5.974;2024-01-25T01:34:31;102618.06;;;4.33;100.00
59757;BME280;45631;51.962;5.974;2024-01-25T01:37:00;102614.66;;;4.27;100.00
59757;BME280;45631;51.962;5.974;2024-01-25T01:39:28;102616.44;;;4.23;100.00
59757;BME280;45631;51.962;5.974;2024-01-25T01:41:57;102622.53;;;4.20;100.00
59757;BME280;45631;51.962;5.974;2024-01-25T01:44:26;102619.97;;;4.17;100.00
59757;BME280;45631;51.962;5.974;2024-01-25T01:46:54;102631.28;;;4.15;100.00
59757;BME280;45631;51.962;5.974;2024-01-25T01:49:22;102631.31;;;4.13;100.00
59757;BME280;45631;51.962;5.974;2024-01-25T01:51:51;102634.78;;;4.11;100.00
59757;BME280;45631;51.962;5.974;2024-01-25T01:54:20;102645.22;;;4.09;100.00
59757;BME280;45631;51.962;5.974;2024-01-25T01:56:48;102639.19;;;4.04;100.00
59757;BME280;45631;51.962;5.974;2024-01-25T01:59:18;102636.63;;;3.98;100.00
59757;BME280;45631;51.962;5.974;2024-01-25T02:01:47;102639.28;;;3.93;100.00
59757;BME280;45631;51.962;5.974;2024-01-25T02:04:16;102645.41;;;3.89;100.00
59757;BME280;45631;51.962;5.974;2024-01-25T02:06:44;102645.44;;;3.86;100.00
59757;BME280;45631;51.962;5.974;2024-01-25T02:09:13;102649.78;;;3.82;100.00
59757;BME280;45631;51.962;5.974;2024-01-25T02:11:41;102652.41;;;3.76;100.00
59757;BME280;45631;51.962;5.974;2024-01-25T02:14:09;102655.06;;;3.73;100.00
59757;BME280;45631;51.962;5.974;2024-01-25T02:16:40;102654.19;;;3.69;100.00
59757;BME280;45631;51.962;5.974;2024-01-25T02:19:12;102655.97;;;3.69;100.00
59757;BME280;45631;51.962;5.974;2024-01-25T02:21:41;102659.44;;;3.66;100.00
59757;BME280;45631;51.962;5.974;2024-01-25T02:24:11;102661.19;;;3.66;100.00
59757;BME280;45631;51.962;5.974;2024-01-25T02:26:41;102655.13;;;3.62;100.00
59757;BME280;45631;51.962;5.974;2024-01-25T02:29:10;102655.19;;;3.58;100.00
59757;BME280;45631;51.962;5.974;2024-01-25T02:31:38;102650.88;;;3.53;100.00
59757;BME280;45631;51.962;5.974;2024-01-25T02:34:06;102656.94;;;3.52;100.00
59757;BME280;45631;51.962;5.974;2024-01-25T02:36:34;102655.22;;;3.50;100.00
59757;BME280;45631;51.962;5.974;2024-01-25T02:39:03;102666.50;;;3.47;100.00
59757;BME280;45631;51.962;5.974;2024-01-25T02:41:33;102665.66;;;3.45;100.00
59757;BME280;45631;51.962;5.974;2024-01-25T02:44:02;102658.75;;;3.41;100.00
59757;BME280;45631;51.962;5.974;2024-01-25T02:46:30;102661.34;;;3.41;100.00
59757;BME280;45631;51.962;5.974;2024-01-25T02:48:58;102675.25;;;3.38;100.00
59757;BME280;45631;51.962;5.974;2024-01-25T02:51:26;102673.53;;;3.36;100.00
59757;BME280;45631;51.962;5.974;2024-01-25T02:53:55;102674.41;;;3.33;100.00
59757;BME280;45631;51.962;5.974;2024-01-25T02:56:23;102670.09;;;3.29;100.00
59757;BME280;45631;51.962;5.974;2024-01-25T02:58:53;102667.50;;;3.28;100.00
59757;BME280;45631;51.962;5.974;2024-01-25T03:01:21;102671.81;;;3.27;100.00
59757;BME280;45631;51.962;5.974;2024-01-25T03:03:50;102668.34;;;3.28;100.00
59757;BME280;45631;51.962;5.974;2024-01-25T03:06:20;102666.63;;;3.24;100.00
59757;BME280;45631;51.962;5.974;2024-01-25T03:08:49;102670.97;;;3.25;100.00
59757;BME280;45631;51.962;5.974;2024-01-25T03:11:17;102671.84;;;3.24;100.00
59757;BME280;45631;51.962;5.974;2024-01-25T03:13:45;102666.66;;;3.22;100.00
59757;BME280;45631;51.962;5.974;2024-01-25T03:16:15;102653.66;;;3.22;100.00
59757;BME280;45631;51.962;5.974;2024-01-25T03:18:43;102655.41;;;3.20;100.00
59757;BME280;45631;51.962;5.974;2024-01-25T03:21:12;102656.28;;;3.18;100.00
59757;BME280;45631;51.962;5.974;2024-01-25T03:23:40;102645.00;;;3.20;100.00
59757;BME280;45631;51.962;5.974;2024-01-25T03:26:08;102653.69;;;3.18;100.00
59757;BME280;45631;51.962;5.974;2024-01-25T03:28:37;102651.09;;;3.16;100.00
59757;BME280;45631;51.962;5.974;2024-01-25T03:31:07;102644.16;;;3.15;100.00
59757;BME280;45631;51.962;5.974;2024-01-25T03:33:36;102652.84;;;3.11;100.00
59757;BME280;45631;51.962;5.974;2024-01-25T03:36:05;102663.25;;;3.11;100.00
59757;BME280;45631;51.962;5.974;2024-01-25T03:38:34;102664.13;;;3.09;100.00
59757;BME280;45631;51.962;5.974;2024-01-25T03:41:02;102665.84;;;3.11;100.00
59757;BME280;45631;51.962;5.974;2024-01-25T03:43:30;102665.88;;;3.08;100.00
59757;BME280;45631;51.962;5.974;2024-01-25T03:46:09;102675.38;;;3.12;100.00
59757;BME280;45631;51.962;5.974;2024-01-25T03:48:38;102678.00;;;3.06;100.00
59757;BME280;45631;51.962;5.974;2024-01-25T03:51:07;102673.69;;;3.02;100.00
59757;BME280;45631;51.962;5.974;2024-01-25T03:53:37;102674.53;;;3.01;100.00
59757;BME280;45631;51.962;5.974;2024-01-25T03:56:10;102664.16;;;2.98;100.00
59757;BME280;45631;51.962;5.974;2024-01-25T03:58:39;102658.13;;;2.94;100.00
59757;BME280;45631;51.962;5.974;2024-01-25T04:01:07;102656.38;;;2.92;100.00
59757;BME280;45631;51.962;5.974;2024-01-25T04:03:36;102664.19;;;2.88;100.00
59757;BME280;45631;51.962;5.974;2024-01-25T04:06:06;102660.75;;;2.86;100.00
59757;BME280;45631;51.962;5.974;2024-01-25T04:08:34;102661.63;;;2.87;100.00
59757;BME280;45631;51.962;5.974;2024-01-25T04:11:03;102671.13;;;2.85;100.00
59757;BME280;45631;51.962;5.974;2024-01-25T04:13:31;102672.03;;;2.82;100.00
59757;BME280;45631;51.962;5.974;2024-01-25T04:15:59;102678.09;;;2.81;100.00
59757;BME280;45631;51.962;5.974;2024-01-25T04:18:27;102669.44;;;2.79;100.00
59757;BME280;45631;51.962;5.974;2024-01-25T04:20:56;102665.09;;;2.77;100.00
59757;BME280;45631;51.962;5.974;2024-01-25T04:23:26;102666.84;;;2.75;100.00
59757;BME280;45631;51.962;5.974;2024-01-25T04:25:54;102675.53;;;2.72;100.00
59757;BME280;45631;51.962;5.974;2024-01-25T04:28:23;102681.59;;;2.68;100.00
59757;BME280;45631;51.962;5.974;2024-01-25T04:30:51;102687.69;;;2.64;100.00
59757;BME280;45631;51.962;5.974;2024-01-25T04:33:19;102683.34;;;2.63;100.00
59757;BME280;45631;51.962;5.974;2024-01-25T04:35:50;102679.03;;;2.59;100.00
59757;BME280;45631;51.962;5.974;2024-01-25T04:38:18;102682.47;;;2.56;100.00
59757;BME280;45631;51.962;5.974;2024-01-25T04:40:48;102678.16;;;2.52;100.00
59757;BME280;45631;51.962;5.974;2024-01-25T04:43:16;102682.50;;;2.51;100.00
59757;BME280;45631;51.962;5.974;2024-01-25T04:45:44;102676.44;;;2.52;100.00
59757;BME280;45631;51.962;5.974;2024-01-25T04:48:13;102681.63;;;2.49;100.00
59757;BME280;45631;51.962;5.974;2024-01-25T04:50:41;102684.22;;;2.49;100.00
59757;BME280;45631;51.962;5.974;2024-01-25T04:53:09;102691.16;;;2.47;100.00
59757;BME280;45631;51.962;5.974;2024-01-25T04:55:39;102694.63;;;2.46;100.00
59757;BME280;45631;51.962;5.974;2024-01-25T04:58:09;102679.91;;;2.44;100.00
59757;BME280;45631;51.962;5.974;2024-01-25T05:00:38;102685.09;;;2.45;100.00
59757;BME280;45631;51.962;5.974;2024-01-25T05:03:06;102688.59;;;2.46;100.00
59757;BME280;45631;51.962;5.974;2024-01-25T05:05:35;102696.38;;;2.43;100.00
59757;BME280;45631;51.962;5.974;2024-01-25T05:08:06;102686.88;;;2.40;100.00
59757;BME280;45631;51.962;5.974;2024-01-25T05:10:34;102680.81;;;2.36;100.00
59757;BME280;45631;51.962;5.974;2024-01-25T05:13:02;102685.97;;;2.38;100.00
59757;BME280;45631;51.962;5.974;2024-01-25T05:15:32;102692.06;;;2.32;100.00
59757;BME280;45631;51.962;5.974;2024-01-25T05:18:01;102693.78;;;2.26;100.00
59757;BME280;45631;51.962;5.974;2024-01-25T05:20:29;102699.00;;;2.23;100.00
59757;BME280;45631;51.962;5.974;2024-01-25T05:23:00;102706.78;;;2.16;100.00
59757;BME280;45631;51.962;5.974;2024-01-25T05:25:30;102707.63;;;2.12;100.00
59757;BME280;45631;51.962;5.974;2024-01-25T05:27:58;102704.19;;;2.09;100.00
59757;BME280;45631;51.962;5.974;2024-01-25T05:30:27;102704.19;;;2.13;100.00
59757;BME280;45631;51.962;5.974;2024-01-25T05:32:58;102702.47;;;2.08;100.00
59757;BME280;45631;51.962;5.974;2024-01-25T05:35:26;102702.44;;;2.03;100.00
59757;BME280;45631;51.962;5.974;2024-01-25T05:37:55;102702.44;;;1.98;100.00
59757;BME280;45631;51.962;5.974;2024-01-25T05:40:23;102705.91;;;1.93;100.00
59757;BME280;45631;51.962;5.974;2024-01-25T05:42:51;102701.56;;;1.92;100.00
59757;BME280;45631;51.962;5.974;2024-01-25T05:45:20;102703.28;;;1.88;100.00
59757;BME280;45631;51.962;5.974;2024-01-25T05:47:50;102707.63;;;1.84;100.00
59757;BME280;45631;51.962;5.974;2024-01-25T05:50:20;102719.72;;;1.82;100.00
59757;BME280;45631;51.962;5.974;2024-01-25T05:52:50;102722.31;;;1.81;100.00
59757;BME280;45631;51.962;5.974;2024-01-25T05:55:19;102720.63;;;1.81;100.00
59757;BME280;45631;51.962;5.974;2024-01-25T05:57:47;102718.88;;;1.80;100.00
59757;BME280;45631;51.962;5.974;2024-01-25T06:00:16;102718.03;;;1.81;100.00
59757;BME280;45631;51.962;5.974;2024-01-25T06:02:47;102720.63;;;1.83;100.00
59757;BME280;45631;51.962;5.974;2024-01-25T06:05:16;102711.09;;;1.82;100.00
59757;BME280;45631;51.962;5.974;2024-01-25T06:07:47;102712.81;;;1.83;100.00
59757;BME280;45631;51.962;5.974;2024-01-25T06:10:17;102710.22;;;1.83;100.00
59757;BME280;45631;51.962;5.974;2024-01-25T06:12:48;102711.94;;;1.81;100.00
59757;BME280;45631;51.962;5.974;2024-01-25T06:15:16;102717.13;;;1.79;100.00
59757;BME280;45631;51.962;5.974;2024-01-25T06:17:44;102722.31;;;1.79;100.00
59757;BME280;45631;51.962;5.974;2024-01-25T06:20:13;102736.19;;;1.83;100.00
59757;BME280;45631;51.962;5.974;2024-01-25T06:22:41;102740.50;;;1.81;100.00
59757;BME280;45631;51.962;5.974;2024-01-25T06:25:11;102744.81;;;1.77;100.00
59757;BME280;45631;51.962;5.974;2024-01-25T06:27:39;102746.53;;;1.75;100.00
59757;BME280;45631;51.962;5.974;2024-01-25T06:30:08;102742.19;;;1.74;100.00
59757;BME280;45631;51.962;5.974;2024-01-25T06:32:36;102740.47;;;1.73;100.00
59757;BME280;45631;51.962;5.974;2024-01-25T06:35:06;102755.16;;;1.71;100.00
59757;BME280;45631;51.962;5.974;2024-01-25T06:37:35;102745.66;;;1.70;100.00
59757;BME280;45631;51.962;5.974;2024-01-25T06:40:04;102750.84;;;1.68;100.00
59757;BME280;45631;51.962;5.974;2024-01-25T06:42:34;102747.38;;;1.68;100.00
59757;BME280;45631;51.962;5.974;2024-01-25T06:45:02;102749.09;;;1.69;100.00
59757;BME280;45631;51.962;5.974;2024-01-25T06:47:33;102749.09;;;1.67;100.00
59757;BME280;45631;51.962;5.974;2024-01-25T06:50:01;102746.50;;;1.67;100.00
59757;BME280;45631;51.962;5.974;2024-01-25T06:52:30;102746.50;;;1.66;100.00
59757;BME280;45631;51.962;5.974;2024-01-25T06:54:58;102745.66;;;1.64;100.00
59757;BME280;45631;51.962;5.974;2024-01-25T06:57:27;102748.25;;;1.64;100.00
59757;BME280;45631;51.962;5.974;2024-01-25T06:59:59;102749.94;;;1.62;100.00
59757;BME280;45631;51.962;5.974;2024-01-25T07:02:28;102752.53;;;1.63;100.00
59757;BME280;45631;51.962;5.974;2024-01-25T07:04:58;102743.91;;;1.63;100.00
59757;BME280;45631;51.962;5.974;2024-01-25T07:07:29;102749.09;;;1.63;100.00
59757;BME280;45631;51.962;5.974;2024-01-25T07:09:59;102736.97;;;1.62;100.00
59757;BME280;45631;51.962;5.974;2024-01-25T07:12:29;102736.97;;;1.62;100.00
59757;BME280;45631;51.962;5.974;2024-01-25T07:14:59;102728.34;;;1.63;100.00
59757;BME280;45631;51.962;5.974;2024-01-25T07:17:27;102726.59;;;1.62;100.00
59757;BME280;45631;51.962;5.974;2024-01-25T07:19:55;102727.50;;;1.62;100.00
59757;BME280;45631;51.962;5.974;2024-01-25T07:22:24;102724.88;;;1.61;100.00
59757;BME280;45631;51.962;5.974;2024-01-25T07:24:52;102731.78;;;1.59;100.00
59757;BME280;45631;51.962;5.974;2024-01-25T07:27:20;102739.56;;;1.57;100.00
59757;BME280;45631;51.962;5.974;2024-01-25T07:29:48;102735.25;;;1.55;100.00
59757;BME280;45631;51.962;5.974;2024-01-25T07:32:18;102741.28;;;1.54;100.00
59757;BME280;45631;51.962;5.974;2024-01-25T07:34:47;102742.16;;;1.56;100.00
59757;BME280;45631;51.962;5.974;2024-01-25T07:37:16;102750.81;;;1.55;100.00
59757;BME280;45631;51.962;5.974;2024-01-25T07:39:45;102754.25;;;1.50;100.00
59757;BME280;45631;51.962;5.974;2024-01-25T07:42:13;102755.09;;;1.49;100.00
59757;BME280;45631;51.962;5.974;2024-01-25T07:44:42;102753.38;;;1.47;100.00
59757;BME280;45631;51.962;5.974;2024-01-25T07:47:11;102762.88;;;1.46;100.00
59757;BME280;45631;51.962;5.974;2024-01-25T07:49:43;102760.28;;;1.46;100.00
59757;BME280;45631;51.962;5.974;2024-01-25T07:52:12;102762.88;;;1.46;100.00
59757;BME280;45631;51.962;5.974;2024-01-25T07:54:40;102763.75;;;1.48;100.00
59757;BME280;45631;51.962;5.974;2024-01-25T07:57:11;102765.47;;;1.49;100.00
59757;BME280;45631;51.962;5.974;2024-01-25T07:59:39;102751.66;;;1.52;100.00
59757;BME280;45631;51.962;5.974;2024-01-25T08:02:08;102756.84;;;1.54;100.00
59757;BME280;45631;51.962;5.974;2024-01-25T08:04:36;102764.63;;;1.55;100.00
59757;BME280;45631;51.962;5.974;2024-01-25T08:07:06;102763.78;;;1.55;100.00
59757;BME280;45631;51.962;5.974;2024-01-25T08:09:35;102767.22;;;1.57;100.00
59757;BME280;45631;51.962;5.974;2024-01-25T08:12:04;102759.47;;;1.60;100.00
59757;BME280;45631;51.962;5.974;2024-01-25T08:14:32;102759.47;;;1.63;100.00
59757;BME280;45631;51.962;5.974;2024-01-25T08:17:02;102766.41;;;1.70;100.00
59757;BME280;45631;51.962;5.974;2024-01-25T08:19:30;102757.78;;;1.77;100.00
59757;BME280;45631;51.962;5.974;2024-01-25T08:21:58;102758.66;;;1.79;100.00
59757;BME280;45631;51.962;5.974;2024-01-25T08:24:28;102760.38;;;1.80;100.00
59757;BME280;45631;51.962;5.974;2024-01-25T08:26:56;102758.66;;;1.81;100.00
59757;BME280;45631;51.962;5.974;2024-01-25T08:29:25;102763.84;;;1.81;100.00
59757;BME280;45631;51.962;5.974;2024-01-25T08:31:55;102769.91;;;1.83;100.00
59757;BME280;45631;51.962;5.974;2024-01-25T08:34:24;102774.25;;;1.85;100.00
59757;BME280;45631;51.962;5.974;2024-01-25T08:36:52;102778.56;;;1.90;100.00
59757;BME280;45631;51.962;5.974;2024-01-25T08:39:20;102781.16;;;1.93;100.00
59757;BME280;45631;51.962;5.974;2024-01-25T08:41:50;102774.25;;;1.93;100.00
59757;BME280;45631;51.962;5.974;2024-01-25T08:44:18;102782.91;;;1.97;100.00
59757;BME280;45631;51.962;5.974;2024-01-25T08:46:46;102783.78;;;2.02;100.00
59757;BME280;45631;51.962;5.974;2024-01-25T08:49:16;102798.50;;;2.05;100.00
59757;BME280;45631;51.962;5.974;2024-01-25T08:51:45;102793.31;;;2.06;100.00
59757;BME280;45631;51.962;5.974;2024-01-25T08:54:13;102795.03;;;2.12;100.00
59757;BME280;45631;51.962;5.974;2024-01-25T08:56:41;102792.44;;;2.16;100.00
59757;BME280;45631;51.962;5.974;2024-01-25T08:59:10;102795.91;;;2.20;100.00
59757;BME280;45631;51.962;5.974;2024-01-25T09:01:39;102797.66;;;2.24;100.00
59757;BME280;45631;51.962;5.974;2024-01-25T09:04:07;102794.19;;;2.30;100.00
59757;BME280;45631;51.962;5.974;2024-01-25T09:06:36;102803.72;;;2.37;100.00
59757;BME280;45631;51.962;5.974;2024-01-25T09:09:04;102792.47;;;2.44;100.00
59757;BME280;45631;51.962;5.974;2024-01-25T09:11:32;102795.06;;;2.52;100.00
59757;BME280;45631;51.962;5.974;2024-01-25T09:14:01;102798.53;;;2.59;100.00
59757;BME280;45631;51.962;5.974;2024-01-25T09:16:30;102812.41;;;2.70;100.00
59757;BME280;45631;51.962;5.974;2024-01-25T09:18:58;102821.03;;;2.77;100.00
59757;BME280;45631;51.962;5.974;2024-01-25T09:21:27;102811.50;;;2.83;100.00
59757;BME280;45631;51.962;5.974;2024-01-25T09:23:55;102809.75;;;2.88;100.00
59757;BME280;45631;51.962;5.974;2024-01-25T09:26:23;102799.38;;;2.95;100.00
59757;BME280;45631;51.962;5.974;2024-01-25T09:28:52;102793.25;;;3.05;100.00
59757;BME280;45631;51.962;5.974;2024-01-25T09:31:20;102773.31;;;3.12;100.00
59757;BME280;45631;51.962;5.974;2024-01-25T09:33:52;102772.41;;;3.19;100.00
59757;BME280;45631;51.962;5.974;2024-01-25T09:36:20;102795.78;;;3.27;100.00
59757;BME280;45631;51.962;5.974;2024-01-25T09:38:49;102806.19;;;3.33;100.00
59757;BME280;45631;51.962;5.974;2024-01-25T09:41:17;102810.50;;;3.38;100.00
59757;BME280;45631;51.962;5.974;2024-01-25T09:43:45;102808.75;;;3.45;100.00
59757;BME280;45631;51.962;5.974;2024-01-25T09:46:14;102813.03;;;3.52;100.00
59757;BME280;45631;51.962;5.974;2024-01-25T09:48:44;102820.81;;;3.57;100.00
59757;BME280;45631;51.962;5.974;2024-01-25T09:51:17;102818.19;;;3.65;100.00
59757;BME280;45631;51.962;5.974;2024-01-25T09:53:45;102804.28;;;3.75;100.00
59757;BME280;45631;51.962;5.974;2024-01-25T09:56:20;102799.91;;;3.79;100.00
59757;BME280;45631;51.962;5.974;2024-01-25T09:58:49;102798.16;;;3.84;100.00
59757;BME280;45631;51.962;5.974;2024-01-25T10:01:18;102786.00;;;3.87;100.00
59757;BME280;45631;51.962;5.974;2024-01-25T10:03:46;102785.94;;;3.94;100.00
59757;BME280;45631;51.962;5.974;2024-01-25T10:06:17;102777.22;;;4.01;100.00
59757;BME280;45631;51.962;5.974;2024-01-25T10:08:45;102774.59;;;4.04;100.00
59757;BME280;45631;51.962;5.974;2024-01-25T10:11:14;102771.06;;;4.11;100.00
59757;BME280;45631;51.962;5.974;2024-01-25T10:13:42;102782.31;;;4.18;100.00
59757;BME280;45631;51.962;5.974;2024-01-25T10:16:11;102778.75;;;4.27;100.00
59757;BME280;45631;51.962;5.974;2024-01-25T10:18:42;102779.56;;;4.36;100.00
59757;BME280;45631;51.962;5.974;2024-01-25T10:21:12;102760.41;;;4.44;100.00
59757;BME280;45631;51.962;5.974;2024-01-25T10:23:45;102758.56;;;4.53;100.00
59757;BME280;45631;51.962;5.974;2024-01-25T10:26:15;102748.94;;;4.60;100.00
59757;BME280;45631;51.962;5.974;2024-01-25T10:28:51;102739.28;;;4.71;100.00
59757;BME280;45631;51.962;5.974;2024-01-25T10:31:27;102751.38;;;4.80;100.00
59757;BME280;45631;51.962;5.974;2024-01-25T10:33:57;102756.47;;;4.88;100.00
59757;BME280;45631;51.962;5.974;2024-01-25T10:36:26;102758.16;;;4.95;100.00
59757;BME280;45631;51.962;5.974;2024-01-25T10:38:57;102765.00;;;5.04;100.00
59757;BME280;45631;51.962;5.974;2024-01-25T10:41:26;102770.13;;;5.13;100.00
59757;BME280;45631;51.962;5.974;2024-01-25T10:43:55;102769.19;;;5.17;100.00
59757;BME280;45631;51.962;5.974;2024-01-25T10:46:24;102757.81;;;5.23;100.00
59757;BME280;45631;51.962;5.974;2024-01-25T10:48:53;102750.75;;;5.33;100.00
59757;BME280;45631;51.962;5.974;2024-01-25T10:51:26;102755.91;;;5.39;100.00
59757;BME280;45631;51.962;5.974;2024-01-25T10:53:56;102754.91;;;5.48;100.00
59757;BME280;45631;51.962;5.974;2024-01-25T10:56:25;102758.28;;;5.54;100.00
59757;BME280;45631;51.962;5.974;2024-01-25T10:58:54;102745.16;;;5.62;100.00
59757;BME280;45631;51.962;5.974;2024-01-25T11:01:22;102739.84;;;5.67;100.00
59757;BME280;45631;51.962;5.974;2024-01-25T11:03:50;102734.59;;;5.71;100.00
59757;BME280;45631;51.962;5.974;2024-01-25T11:06:20;102735.34;;;5.78;100.00
59757;BME280;45631;51.962;5.974;2024-01-25T11:08:49;102727.34;;;5.87;100.00
59757;BME280;45631;51.962;5.974;2024-01-25T11:11:19;102738.69;;;5.88;100.00
59757;BME280;45631;51.962;5.974;2024-01-25T11:13:50;102743.78;;;5.96;100.00
59757;BME280;45631;51.962;5.974;2024-01-25T11:16:28;102741.91;;;6.07;100.00
59757;BME280;45631;51.962;5.974;2024-01-25T11:18:58;102726.91;;;6.18;100.00
59757;BME280;45631;51.962;5.974;2024-01-25T11:21:40;102724.22;;;6.23;100.00
59757;BME280;45631;51.962;5.974;2024-01-25T11:24:12;102726.72;;;6.31;100.00
59757;BME280;45631;51.962;5.974;2024-01-25T11:26:42;102724.81;;;6.39;100.00
59757;BME280;45631;51.962;5.974;2024-01-25T11:29:13;102721.31;;;6.40;100.00
59757;BME280;45631;51.962;5.974;2024-01-25T11:31:46;102712.56;;;6.42;100.00
59757;BME280;45631;51.962;5.974;2024-01-25T11:34:15;102709.78;;;6.50;100.00
59757;BME280;45631;51.962;5.974;2024-01-25T11:36:45;102707.00;;;6.59;100.00
59757;BME280;45631;51.962;5.974;2024-01-25T11:39:15;102691.28;;;6.63;100.00
59757;BME280;45631;51.962;5.974;2024-01-25T11:41:45;102692.00;;;6.69;100.00
59757;BME280;45631;51.962;5.974;2024-01-25T11:44:14;102706.97;;;6.63;100.00
59757;BME280;45631;51.962;5.974;2024-01-25T11:46:42;102718.19;;;6.68;100.00
59757;BME280;45631;51.962;5.974;2024-01-25T11:49:11;102705.94;;;6.71;100.00
59757;BME280;45631;51.962;5.974;2024-01-25T11:51:39;102704.94;;;6.77;100.00
59757;BME280;45631;51.962;5.974;2024-01-25T11:54:09;102698.09;;;6.71;100.00
59757;BME280;45631;51.962;5.974;2024-01-25T11:56:39;102683.97;;;6.80;100.00
59757;BME280;45631;51.962;5.974;2024-01-25T11:59:11;102688.97;;;6.91;100.00
59757;BME280;45631;51.962;5.974;2024-01-25T12:01:40;102694.97;;;6.96;100.00
59757;BME280;45631;51.962;5.974;2024-01-25T12:04:09;102678.38;;;6.99;100.00
59757;BME280;45631;51.962;5.974;2024-01-25T12:06:38;102669.63;;;7.00;100.00
59757;BME280;45631;51.962;5.974;2024-01-25T12:09:08;102667.94;;;6.97;100.00
59757;BME280;45631;51.962;5.974;2024-01-25T12:11:36;102676.53;;;7.04;100.00
59757;BME280;45631;51.962;5.974;2024-01-25T12:14:05;102675.59;;;7.06;100.00
59757;BME280;45631;51.962;5.974;2024-01-25T12:16:34;102661.59;;;7.09;100.00
59757;BME280;45631;51.962;5.974;2024-01-25T12:19:05;102654.59;;;7.09;100.00
59757;BME280;45631;51.962;5.974;2024-01-25T12:21:34;102646.63;;;7.14;100.00
59757;BME280;45631;51.962;5.974;2024-01-25T12:24:04;102650.13;;;7.15;100.00
59757;BME280;45631;51.962;5.974;2024-01-25T12:26:34;102651.81;;;7.17;100.00
59757;BME280;45631;51.962;5.974;2024-01-25T12:29:02;102649.16;;;7.19;100.00
59757;BME280;45631;51.962;5.974;2024-01-25T12:31:32;102649.16;;;7.19;100.00
59757;BME280;45631;51.962;5.974;2024-01-25T12:34:01;102649.94;;;7.22;100.00
59757;BME280;45631;51.962;5.974;2024-01-25T12:36:30;102650.91;;;7.18;100.00
59757;BME280;45631;51.962;5.974;2024-01-25T12:39:00;102648.28;;;7.18;100.00
59757;BME280;45631;51.962;5.974;2024-01-25T12:41:29;102649.94;;;7.22;100.00
59757;BME280;45631;51.962;5.974;2024-01-25T12:43:58;102638.47;;;7.30;100.00
59757;BME280;45631;51.962;5.974;2024-01-25T12:46:26;102629.63;;;7.34;100.00
59757;BME280;45631;51.962;5.974;2024-01-25T12:48:59;102615.78;;;7.28;100.00
59757;BME280;45631;51.962;5.974;2024-01-25T12:51:29;102627.09;;;7.29;100.00
59757;BME280;45631;51.962;5.974;2024-01-25T12:53:58;102626.88;;;7.40;100.00
59757;BME280;45631;51.962;5.974;2024-01-25T12:56:26;102631.22;;;7.41;100.00
59757;BME280;45631;51.962;5.974;2024-01-25T12:58:55;102632.75;;;7.50;100.00